createdAt,value
2022-09-13T06:58:59.914Z,5.40
2022-09-13T07:01:30.274Z,4.60
2022-09-13T07:04:01.187Z,3.80
2022-09-13T07:06:31.122Z,3.80
2022-09-13T07:09:00.427Z,3.97
2022-09-13T07:11:31.213Z,3.60
2022-09-13T07:13:59.832Z,3.70
2022-09-13T07:16:29.806Z,4.63
2022-09-13T07:18:58.401Z,3.70
2022-09-13T07:21:26.914Z,3.60
2022-09-13T07:23:56.016Z,3.40
2022-09-13T07:26:24.029Z,4.13
2022-09-13T07:28:53.551Z,3.80
2022-09-13T07:31:22.749Z,3.20
2022-09-13T07:33:56.531Z,3.50
2022-09-13T07:36:24.490Z,4.17
2022-09-13T07:38:52.429Z,3.17
2022-09-13T07:41:21.705Z,3.27
2022-09-13T07:43:49.663Z,4.50
2022-09-13T07:46:18.620Z,3.80
2022-09-13T07:48:47.408Z,2.60
2022-09-13T07:51:17.939Z,3.07
2022-09-13T07:53:46.416Z,3.27
2022-09-13T07:56:15.222Z,3.63
2022-09-13T07:58:43.860Z,3.53
2022-09-13T08:01:13.515Z,3.00
2022-09-13T08:03:41.637Z,4.67
2022-09-13T08:06:09.713Z,3.30
2022-09-13T08:08:39.151Z,3.57
2022-09-13T08:11:07.728Z,3.50
2022-09-13T08:13:35.659Z,3.53
2022-09-13T08:16:04.418Z,3.80
2022-09-13T08:18:32.492Z,3.97
2022-09-13T08:21:01.936Z,3.47
2022-09-13T08:27:57.037Z,3.90
2022-09-13T08:31:04.759Z,3.37
2022-09-13T08:59:47.769Z,3.83
2022-09-13T09:05:55.573Z,3.83
2022-09-13T09:08:31.285Z,3.77
2022-09-13T09:11:00.564Z,3.67
2022-09-13T09:13:30.072Z,3.50
2022-09-13T09:15:59.705Z,3.20
2022-09-13T09:18:30.685Z,4.63
2022-09-13T09:21:00.849Z,3.23
2022-09-13T09:23:31.457Z,2.80
2022-09-13T09:26:10.575Z,3.37
2022-09-13T09:28:41.712Z,3.50
2022-09-13T09:31:12.463Z,3.43
2022-09-13T09:33:50.302Z,3.40
2022-09-13T09:36:24.416Z,3.20
2022-09-13T09:38:52.471Z,4.10
2022-09-13T09:41:26.808Z,3.20
2022-09-13T09:43:57.784Z,6.40
2022-09-13T09:46:28.081Z,5.43
2022-09-13T09:48:57.405Z,4.50
2022-09-13T09:51:26.875Z,3.80
2022-09-13T09:53:56.818Z,4.30
2022-09-13T09:56:26.004Z,4.87
2022-09-13T09:58:54.535Z,3.60
2022-09-13T10:01:25.464Z,2.37
2022-09-13T10:04:02.526Z,2.33
2022-09-13T10:06:31.860Z,2.00
2022-09-13T10:09:01.692Z,1.97
2022-09-13T10:11:43.662Z,2.37
2022-09-13T10:14:30.397Z,2.10
2022-09-13T10:17:06.036Z,2.03
2022-09-13T10:19:33.942Z,2.30
2022-09-13T10:22:05.850Z,2.10
2022-09-13T10:24:34.060Z,2.00
2022-09-13T10:27:04.150Z,2.30
2022-09-13T10:29:32.248Z,2.20
2022-09-13T10:32:03.737Z,2.23
2022-09-13T10:34:33.760Z,2.03
2022-09-13T10:37:04.548Z,2.00
2022-09-13T10:39:33.600Z,2.20
2022-09-13T10:42:02.390Z,2.40
2022-09-13T10:44:32.791Z,1.93
2022-09-13T10:47:01.909Z,1.83
2022-09-13T10:49:54.093Z,2.00
2022-09-13T10:52:32.196Z,1.87
2022-09-13T10:55:25.828Z,2.10
2022-09-13T10:57:53.934Z,2.43
2022-09-13T11:00:31.130Z,3.57
2022-09-13T11:03:09.199Z,2.20
2022-09-13T11:05:38.638Z,1.80
2022-09-13T11:08:33.555Z,2.37
2022-09-13T11:11:10.368Z,2.30
2022-09-13T11:13:45.888Z,2.20
2022-09-13T11:16:22.689Z,2.00
2022-09-13T11:19:11.992Z,2.20
2022-09-13T11:21:49.562Z,2.25
2022-09-13T11:24:42.782Z,2.40
2022-09-13T11:27:13.876Z,2.35
2022-09-13T11:30:04.488Z,2.15
2022-09-13T11:32:39.493Z,2.03
2022-09-13T11:35:30.462Z,1.70
2022-09-13T11:38:01.990Z,2.00
2022-09-13T11:40:36.072Z,2.03
2022-09-13T11:43:12.605Z,1.90
2022-09-13T11:45:41.316Z,1.85
2022-09-13T11:48:23.511Z,1.50
2022-09-13T11:50:56.167Z,2.08
2022-09-13T11:53:33.821Z,1.83
2022-09-13T11:56:05.234Z,1.60
2022-09-13T11:58:35.334Z,2.00
2022-09-13T12:01:04.957Z,2.15
2022-09-13T12:03:35.965Z,1.80
2022-09-13T12:06:06.005Z,2.10
2022-09-13T12:08:34.391Z,2.42
2022-09-13T12:11:05.008Z,2.72
2022-09-13T12:13:34.209Z,1.90
2022-09-13T12:16:03.658Z,2.05
2022-09-13T12:18:33.120Z,2.03
2022-09-13T12:21:06.872Z,1.85
2022-09-13T12:23:36.707Z,1.73
2022-09-13T12:26:07.830Z,1.90
2022-09-13T12:28:37.329Z,2.05
2022-09-13T12:31:07.059Z,2.08
2022-09-13T12:33:35.098Z,1.63
2022-09-13T12:36:53.721Z,1.80
2022-09-13T12:39:43.038Z,2.20
2022-09-13T12:42:40.302Z,1.75
2022-09-13T12:45:26.743Z,1.83
2022-09-13T12:48:22.380Z,1.95
2022-09-13T12:51:00.299Z,2.50
2022-09-13T12:53:44.314Z,2.20
2022-09-13T12:56:36.929Z,2.03
2022-09-13T12:59:23.560Z,2.20
2022-09-13T13:01:52.296Z,2.20
2022-09-13T13:04:21.506Z,2.30
2022-09-13T13:06:51.377Z,2.35
2022-09-13T13:09:32.192Z,1.80
2022-09-13T13:12:00.120Z,2.53
2022-09-13T13:14:53.765Z,2.40
2022-09-13T13:17:45.087Z,2.53
2022-09-13T13:20:48.107Z,2.38
2022-09-13T13:23:27.418Z,2.20
2022-09-13T13:26:11.962Z,2.38
2022-09-13T13:28:54.382Z,2.70
2022-09-13T13:31:40.779Z,2.10
2022-09-13T13:34:29.014Z,2.53
2022-09-13T13:36:59.042Z,2.60
2022-09-13T13:39:40.842Z,2.90
2022-09-13T14:36:59.085Z,3.05
2022-09-13T14:39:27.016Z,2.65
2022-09-13T14:42:04.402Z,2.10
2022-09-13T14:44:32.380Z,2.20
2022-09-13T14:47:04.476Z,2.15
2022-09-13T14:49:34.531Z,2.10
2022-09-13T14:52:05.304Z,2.15
2022-09-13T14:54:36.619Z,2.42
2022-09-13T14:57:04.671Z,2.20
2022-09-13T14:59:34.085Z,2.30
2022-09-13T15:02:06.744Z,2.50
2022-09-13T15:04:34.957Z,2.45
2022-09-13T15:07:21.696Z,2.33
2022-09-13T15:09:49.964Z,2.40
2022-09-13T15:12:25.751Z,2.50
2022-09-13T15:15:26.219Z,2.42
2022-09-13T15:17:55.781Z,2.63
2022-09-13T15:20:24.063Z,2.50
2022-09-13T15:22:53.982Z,3.10
2022-09-13T15:25:24.469Z,3.15
2022-09-13T15:27:52.421Z,3.13
2022-09-13T15:30:28.157Z,3.20
2022-09-13T15:39:29.549Z,3.30
2022-09-13T15:41:59.193Z,2.80
2022-09-13T15:44:45.373Z,3.03
2022-09-13T15:47:53.124Z,3.13
2022-09-13T15:51:09.884Z,3.43
2022-09-13T15:57:38.433Z,3.17
2022-09-13T16:01:04.679Z,2.85
2022-09-13T16:06:59.426Z,3.28
2022-09-13T16:09:34.400Z,3.38
2022-09-13T16:12:45.954Z,3.53
2022-09-13T16:15:17.694Z,4.13
2022-09-13T16:18:01.135Z,4.60
2022-09-13T16:24:30.882Z,3.70
2022-09-13T16:31:03.685Z,3.37
2022-09-13T16:33:35.880Z,3.40
2022-09-13T16:36:54.767Z,3.47
2022-09-13T16:40:31.080Z,3.10
2022-09-13T16:53:22.831Z,3.50
2022-09-13T16:59:42.485Z,4.50
2022-09-13T17:04:06.809Z,4.20
2022-09-13T17:11:09.055Z,4.50
2022-09-13T17:18:03.377Z,5.40
2022-09-13T17:20:31.614Z,5.37
2022-09-13T17:27:32.776Z,5.90
2022-09-13T17:30:02.426Z,6.90
2022-09-13T17:32:30.835Z,7.00
2022-09-13T17:34:59.457Z,5.63
2022-09-13T17:37:28.218Z,4.80
2022-09-13T17:40:12.663Z,5.60
2022-09-13T17:46:47.456Z,4.40
2022-09-13T17:49:17.554Z,4.47
2022-09-13T17:52:08.936Z,4.03
2022-09-13T18:05:50.776Z,3.00
2022-09-13T18:09:01.307Z,3.23
2022-09-13T18:19:39.162Z,2.90
2022-09-13T18:22:54.020Z,2.73
2022-09-13T18:26:11.086Z,4.00
2022-09-13T18:28:57.677Z,2.80
2022-09-13T18:34:34.841Z,2.70
2022-09-13T18:37:59.257Z,2.70
2022-09-13T18:41:07.028Z,2.67
2022-09-13T19:03:08.373Z,2.20
2022-09-13T19:10:00.507Z,1.97
2022-09-13T19:13:25.207Z,1.80
2022-09-13T19:24:21.220Z,1.53
2022-09-13T19:27:39.948Z,1.90
2022-09-13T19:34:12.762Z,1.50
2022-09-13T19:36:58.175Z,1.57
2022-09-13T19:44:37.217Z,1.57
2022-09-13T19:47:53.192Z,1.30
2022-09-13T19:57:45.267Z,1.70
2022-09-13T20:01:15.484Z,1.37
2022-09-13T20:04:16.350Z,1.80
2022-09-13T20:07:33.663Z,1.73
2022-09-13T20:10:29.913Z,1.63
2022-09-13T20:13:01.257Z,1.60
2022-09-13T20:15:58.293Z,2.10
2022-09-13T20:18:54.893Z,1.70
2022-09-13T20:21:38.383Z,1.57
2022-09-13T20:24:41.478Z,1.70
2022-09-13T20:27:11.391Z,1.80
2022-09-13T20:32:53.287Z,1.90
2022-09-13T20:35:43.297Z,2.17
2022-09-13T20:38:11.883Z,2.00
2022-09-13T20:40:40.668Z,2.00
2022-09-13T20:43:11.586Z,2.20
2022-09-13T20:49:21.480Z,2.13
2022-09-13T20:51:50.249Z,2.40
2022-09-13T20:54:22.744Z,2.60
2022-09-13T20:57:00.169Z,2.43
2022-09-13T20:59:34.454Z,2.60
2022-09-13T21:23:00.522Z,2.50
2022-09-13T21:29:55.293Z,2.90
2022-09-13T21:32:43.288Z,2.50
2022-09-13T21:35:29.279Z,3.07
2022-09-13T21:38:40.522Z,3.20
2022-09-13T21:41:37.519Z,2.70
2022-09-13T21:44:08.761Z,2.80
2022-09-13T21:46:45.158Z,3.00
2022-09-13T21:52:29.543Z,2.80
2022-09-13T21:58:22.427Z,2.40
2022-09-13T22:01:19.746Z,2.67
2022-09-13T22:04:14.364Z,2.60
2022-09-13T22:06:42.705Z,2.70
2022-09-13T22:09:13.851Z,2.70
2022-09-13T22:11:50.545Z,2.70
2022-09-13T22:14:22.380Z,3.00
2022-09-13T22:16:57.490Z,3.00
2022-09-13T22:19:34.403Z,3.30
2022-09-13T22:22:05.340Z,3.30
2022-09-13T22:25:12.017Z,2.87
2022-09-13T22:31:04.553Z,2.90
2022-09-13T22:37:19.451Z,2.80
2022-09-13T22:43:45.333Z,2.73
2022-09-13T22:47:07.815Z,2.80
2022-09-13T22:52:42.156Z,2.90
2022-09-13T22:55:36.499Z,2.83
2022-09-13T22:58:43.689Z,2.97
2022-09-13T23:01:23.202Z,2.80
2022-09-13T23:04:25.399Z,3.30
2022-09-13T23:07:22.042Z,3.67
2022-09-13T23:10:01.582Z,4.53
2022-09-13T23:16:35.696Z,4.03
2022-09-13T23:19:55.391Z,4.27
2022-09-13T23:22:25.828Z,4.63
2022-09-13T23:25:17.971Z,4.30
2022-09-13T23:27:59.253Z,4.20
2022-09-13T23:58:00.794Z,4.50
